createdAt,value
2017-06-21T00:01:23.347Z,4.07
2017-06-21T00:03:49.402Z,4.33
2017-06-21T00:06:15.371Z,4.70
2017-06-21T00:08:41.366Z,4.40
2017-06-21T00:11:07.370Z,4.47
2017-06-21T00:13:33.342Z,4.63
2017-06-21T00:15:59.339Z,4.57
2017-06-21T00:18:25.358Z,5.13
2017-06-21T00:20:51.322Z,4.73
2017-06-21T00:23:17.314Z,5.03
2017-06-21T00:25:43.272Z,4.90
2017-06-21T00:28:09.234Z,4.70
2017-06-21T00:30:35.222Z,4.50
2017-06-21T00:33:01.230Z,4.80
2017-06-21T00:35:27.225Z,4.67
2017-06-21T00:37:53.181Z,5.13
2017-06-21T00:40:19.186Z,5.40
2017-06-21T00:42:45.141Z,4.80
2017-06-21T00:45:11.102Z,5.20
2017-06-21T00:47:37.094Z,5.00
2017-06-21T00:50:03.071Z,5.20
2017-06-21T00:52:29.073Z,4.67
2017-06-21T00:54:55.082Z,5.13
2017-06-21T00:57:21.038Z,5.43
2017-06-21T00:59:47.065Z,5.10
2017-06-21T01:02:13.026Z,4.30
2017-06-21T01:04:39.038Z,5.00
2017-06-21T01:07:05.006Z,5.33
2017-06-21T01:09:31.732Z,5.10
2017-06-21T01:11:58.486Z,4.63
2017-06-21T01:14:24.484Z,5.37
2017-06-21T01:16:50.469Z,5.70
2017-06-21T01:19:17.162Z,4.90
2017-06-21T01:21:43.154Z,4.97
2017-06-21T01:24:09.109Z,5.40
2017-06-21T01:26:35.850Z,5.10
2017-06-21T01:29:01.817Z,4.90
2017-06-21T01:31:27.830Z,5.70
2017-06-21T01:33:53.789Z,5.60
2017-06-21T01:36:19.758Z,4.73
2017-06-21T01:38:45.745Z,5.77
2017-06-21T01:41:11.740Z,5.47
2017-06-21T01:43:37.726Z,4.87
2017-06-21T01:46:03.690Z,5.50
2017-06-21T01:48:29.677Z,5.27
2017-06-21T01:50:55.629Z,5.70
2017-06-21T01:53:22.355Z,4.80
2017-06-21T01:55:49.091Z,4.80
2017-06-21T01:58:15.042Z,6.33
2017-06-21T02:00:41.032Z,5.33
2017-06-21T02:03:07.022Z,5.47
2017-06-21T02:05:32.991Z,6.07
2017-06-21T02:07:58.994Z,5.57
2017-06-21T02:10:24.954Z,4.83
2017-06-21T02:12:50.947Z,5.10
2017-06-21T02:15:16.957Z,5.83
2017-06-21T02:17:42.965Z,5.50
2017-06-21T02:20:08.926Z,5.53
2017-06-21T02:22:34.894Z,5.50
2017-06-21T02:25:00.901Z,5.87
2017-06-21T02:27:26.873Z,5.30
2017-06-21T02:29:52.883Z,5.80
2017-06-21T02:32:18.834Z,5.23
2017-06-21T02:34:44.829Z,6.00
2017-06-21T02:37:10.782Z,5.03
2017-06-21T02:39:36.785Z,4.90
2017-06-21T02:42:02.812Z,4.70
2017-06-21T02:44:28.816Z,5.00
2017-06-21T02:46:54.786Z,4.73
2017-06-21T02:49:20.781Z,4.30
2017-06-21T02:51:46.779Z,4.70
2017-06-21T02:54:13.525Z,5.00
2017-06-21T02:56:39.490Z,4.23
2017-06-21T02:59:05.463Z,4.70
2017-06-21T03:01:31.514Z,5.50
2017-06-21T03:03:57.477Z,4.40
2017-06-21T03:06:23.481Z,4.37
2017-06-21T03:08:49.461Z,4.77
2017-06-21T03:11:15.456Z,5.30
2017-06-21T03:13:42.198Z,4.60
2017-06-21T03:16:08.153Z,4.37
2017-06-21T03:18:34.158Z,5.10
2017-06-21T03:21:00.219Z,5.53
2017-06-21T03:23:26.998Z,5.80
2017-06-21T03:25:52.966Z,5.23
2017-06-21T03:28:18.925Z,5.40
2017-06-21T03:30:45.001Z,5.47
2017-06-21T03:33:10.957Z,4.97
2017-06-21T03:35:36.986Z,5.20
2017-06-21T03:38:03.700Z,4.77
2017-06-21T03:40:29.700Z,5.17
2017-06-21T03:42:55.697Z,4.60
2017-06-21T03:45:21.663Z,4.57
2017-06-21T03:47:47.665Z,4.53
2017-06-21T03:50:13.623Z,4.60
2017-06-21T03:52:39.632Z,4.07
2017-06-21T03:55:05.626Z,4.03
2017-06-21T03:57:31.597Z,4.20
2017-06-21T03:59:57.653Z,4.20
2017-06-21T04:02:23.618Z,3.40
2017-06-21T04:04:49.623Z,3.33
2017-06-21T04:07:15.595Z,3.20
2017-06-21T04:09:41.589Z,3.80
2017-06-21T04:12:07.549Z,4.00
2017-06-21T04:14:33.566Z,3.80
2017-06-21T04:16:59.578Z,3.50
2017-06-21T04:19:25.569Z,3.20
2017-06-21T04:21:51.562Z,3.93
2017-06-21T04:24:18.262Z,3.23
2017-06-21T04:26:44.310Z,3.13
2017-06-21T04:29:10.265Z,3.30
2017-06-21T04:31:36.267Z,3.10
2017-06-21T04:34:02.275Z,2.97
2017-06-21T04:36:28.272Z,2.90
2017-06-21T04:38:54.258Z,2.40
2017-06-21T04:41:20.269Z,2.40
2017-06-21T04:43:46.274Z,2.20
2017-06-21T04:46:12.239Z,2.30
2017-06-21T04:48:38.262Z,2.40
2017-06-21T04:51:04.302Z,2.10
2017-06-21T04:53:30.454Z,2.20
2017-06-21T04:55:56.451Z,2.07
2017-06-21T04:58:22.414Z,2.20
2017-06-21T05:00:48.442Z,2.03
2017-06-21T05:03:14.415Z,1.70
2017-06-21T05:05:40.426Z,2.33
2017-06-21T05:08:06.406Z,2.20
2017-06-21T05:10:32.382Z,1.90
2017-06-21T05:12:58.434Z,1.90
2017-06-21T05:15:25.199Z,1.90
2017-06-21T05:17:51.203Z,1.57
2017-06-21T05:20:17.911Z,1.77
2017-06-21T05:22:43.901Z,2.07
2017-06-21T05:25:09.861Z,1.67
2017-06-21T05:27:35.859Z,1.90
2017-06-21T05:30:02.561Z,1.60
2017-06-21T05:32:28.570Z,1.90
2017-06-21T05:34:55.298Z,2.20
2017-06-21T05:37:21.253Z,2.10
2017-06-21T05:39:47.245Z,1.47
2017-06-21T05:42:13.206Z,1.70
2017-06-21T05:44:39.190Z,1.77
2017-06-21T05:47:05.198Z,2.20
2017-06-21T05:49:31.210Z,1.20
2017-06-21T05:51:57.183Z,1.87
2017-06-21T05:54:23.939Z,2.10
2017-06-21T05:56:49.897Z,1.63
2017-06-21T05:59:15.866Z,1.60
2017-06-21T06:01:41.909Z,1.40
2017-06-21T06:04:07.862Z,1.77
2017-06-21T06:06:33.897Z,1.87
2017-06-21T06:08:59.878Z,1.40
2017-06-21T06:11:25.846Z,1.83
2017-06-21T06:13:51.855Z,1.43
2017-06-21T06:16:17.822Z,1.50
2017-06-21T06:18:43.823Z,1.80
2017-06-21T06:21:09.778Z,1.80
2017-06-21T06:23:35.791Z,2.37
2017-06-21T06:26:01.752Z,1.57
2017-06-21T06:28:27.708Z,1.70
2017-06-21T06:30:53.715Z,2.20
2017-06-21T06:33:19.747Z,1.70
2017-06-21T06:35:46.473Z,1.57
2017-06-21T06:38:12.443Z,2.27
2017-06-21T06:40:38.462Z,1.97
2017-06-21T06:43:04.432Z,2.07
2017-06-21T06:45:30.414Z,2.00
2017-06-21T06:47:56.453Z,1.90
2017-06-21T06:50:22.414Z,2.13
2017-06-21T06:52:49.166Z,2.33
2017-06-21T06:55:15.122Z,1.57
2017-06-21T06:57:41.085Z,1.90
2017-06-21T07:00:07.108Z,1.80
2017-06-21T07:02:33.104Z,2.10
2017-06-21T07:04:59.079Z,1.90
2017-06-21T07:07:25.103Z,2.23
2017-06-21T07:09:51.805Z,2.53
2017-06-21T07:12:17.810Z,2.00
2017-06-21T07:14:43.810Z,1.63
2017-06-21T07:17:09.779Z,2.87
2017-06-21T07:19:35.743Z,2.57
2017-06-21T07:22:01.792Z,2.70
2017-06-21T07:24:27.754Z,2.27
2017-06-21T07:26:53.737Z,2.60
2017-06-21T07:29:19.717Z,2.27
2017-06-21T07:31:45.730Z,1.97
2017-06-21T07:34:11.688Z,2.40
2017-06-21T07:36:37.646Z,2.60
2017-06-21T07:39:03.694Z,2.30
2017-06-21T07:41:29.679Z,2.93
2017-06-21T07:43:55.699Z,2.40
2017-06-21T07:46:21.666Z,2.53
2017-06-21T07:48:47.651Z,3.10
2017-06-21T07:51:14.398Z,2.83
2017-06-21T07:53:40.401Z,2.97
2017-06-21T07:56:06.466Z,3.10
2017-06-21T07:58:32.447Z,2.97
2017-06-21T08:00:58.451Z,2.63
2017-06-21T08:03:24.471Z,2.97
2017-06-21T08:05:50.525Z,3.20
2017-06-21T08:08:16.534Z,2.53
2017-06-21T08:10:42.582Z,2.73
2017-06-21T08:13:08.555Z,2.77
2017-06-21T08:15:35.271Z,3.07
2017-06-21T08:18:01.377Z,3.00
2017-06-21T08:20:27.376Z,3.13
2017-06-21T08:22:53.416Z,2.77
2017-06-21T08:25:19.394Z,2.80
2017-06-21T08:27:45.450Z,3.00
2017-06-21T08:30:11.419Z,2.70
2017-06-21T08:32:37.434Z,2.50
2017-06-21T08:35:03.492Z,2.80
2017-06-21T08:37:29.568Z,2.30
2017-06-21T08:39:56.353Z,2.23
2017-06-21T08:42:22.516Z,3.00
2017-06-21T08:44:49.320Z,2.80
2017-06-21T08:47:15.295Z,3.13
2017-06-21T08:49:41.288Z,2.17
2017-06-21T08:52:07.290Z,2.80
2017-06-21T08:54:33.294Z,2.83
2017-06-21T08:56:59.326Z,2.50
2017-06-21T08:59:25.281Z,2.43
2017-06-21T09:01:51.358Z,2.20
2017-06-21T09:04:17.318Z,2.63
2017-06-21T09:06:44.066Z,2.73
2017-06-21T09:09:10.035Z,2.60
2017-06-21T09:11:36.052Z,3.10
2017-06-21T09:14:02.026Z,2.90
2017-06-21T09:16:27.991Z,2.73
2017-06-21T09:18:53.989Z,2.93
2017-06-21T09:21:20.690Z,3.17
2017-06-21T09:23:46.687Z,2.70
2017-06-21T09:26:12.689Z,3.40
2017-06-21T09:28:38.663Z,2.70
2017-06-21T09:31:04.667Z,3.33
2017-06-21T09:33:30.693Z,3.00
2017-06-21T09:35:56.733Z,3.20
2017-06-21T09:38:22.686Z,2.77
2017-06-21T09:40:48.694Z,3.17
2017-06-21T09:43:14.702Z,3.20
2017-06-21T09:45:40.706Z,2.77
2017-06-21T09:48:07.470Z,2.67
2017-06-21T09:50:33.461Z,2.90
2017-06-21T09:52:59.493Z,2.87
2017-06-21T09:55:25.470Z,2.73
2017-06-21T09:57:51.489Z,2.30
2017-06-21T10:00:17.505Z,2.47
2017-06-21T10:02:43.494Z,2.60
2017-06-21T10:05:09.580Z,2.87
2017-06-21T10:07:35.572Z,2.03
2017-06-21T10:10:01.607Z,2.40
2017-06-21T10:12:28.413Z,3.63
2017-06-21T10:14:54.402Z,2.93
2017-06-21T10:17:20.418Z,2.40
2017-06-21T10:19:46.438Z,2.60
2017-06-21T10:22:12.449Z,2.80
2017-06-21T10:24:38.426Z,1.90
2017-06-21T10:27:04.456Z,2.80
2017-06-21T10:29:30.454Z,2.67
2017-06-21T10:31:56.409Z,2.37
2017-06-21T10:34:23.194Z,2.27
2017-06-21T10:36:49.179Z,2.57
2017-06-21T10:39:15.209Z,2.73
2017-06-21T10:41:41.187Z,2.93
2017-06-21T10:44:07.146Z,2.43
2017-06-21T10:46:33.174Z,2.50
2017-06-21T10:48:59.892Z,2.60
2017-06-21T10:51:25.870Z,2.90
2017-06-21T10:53:51.931Z,2.50
2017-06-21T10:56:18.686Z,2.70
2017-06-21T10:58:44.783Z,2.60
2017-06-21T11:01:10.895Z,2.77
2017-06-21T11:03:36.885Z,2.83
2017-06-21T11:06:03.648Z,2.13
2017-06-21T11:08:29.718Z,2.93
2017-06-21T11:10:56.467Z,3.07
2017-06-21T11:13:22.459Z,1.97
2017-06-21T11:15:49.193Z,2.70
2017-06-21T11:18:15.243Z,2.17
2017-06-21T11:20:41.256Z,2.53
2017-06-21T11:23:07.240Z,2.30
2017-06-21T11:25:33.254Z,2.57
2017-06-21T11:27:59.268Z,2.50
2017-06-21T11:30:25.226Z,2.40
2017-06-21T11:32:52.003Z,2.70
2017-06-21T11:35:18.019Z,2.70
2017-06-21T11:37:43.998Z,2.30
2017-06-21T11:40:10.035Z,2.50
2017-06-21T11:42:36.004Z,2.17
2017-06-21T11:45:02.022Z,2.67
2017-06-21T11:47:28.057Z,2.00
2017-06-21T11:49:54.052Z,2.67
2017-06-21T11:52:20.057Z,2.40
2017-06-21T11:54:46.017Z,2.90
2017-06-21T11:57:11.998Z,2.40
2017-06-21T11:59:38.010Z,2.40
2017-06-21T12:02:04.014Z,2.93
2017-06-21T12:04:30.040Z,2.47
2017-06-21T12:06:56.131Z,2.40
2017-06-21T12:09:22.109Z,2.60
2017-06-21T12:11:48.078Z,2.43
2017-06-21T12:14:14.079Z,2.63
2017-06-21T12:16:40.042Z,3.10
2017-06-21T12:19:06.034Z,2.50
2017-06-21T12:21:32.010Z,2.90
2017-06-21T12:23:57.979Z,2.73
2017-06-21T12:26:23.990Z,2.80
2017-06-21T12:28:49.950Z,3.07
2017-06-21T12:31:16.352Z,2.50
2017-06-21T12:33:42.321Z,3.23
2017-06-21T12:36:08.337Z,3.17
2017-06-21T12:38:34.386Z,2.80
2017-06-21T12:41:00.386Z,3.40
2017-06-21T12:43:26.394Z,2.83
2017-06-21T12:45:52.407Z,3.07
2017-06-21T12:48:18.375Z,3.50
2017-06-21T12:50:44.419Z,3.47
2017-06-21T12:53:10.418Z,4.13
2017-06-21T12:55:36.406Z,3.63
2017-06-21T12:58:02.427Z,3.70
2017-06-21T13:00:28.486Z,3.87
2017-06-21T13:02:55.287Z,3.20
2017-06-21T13:05:21.258Z,3.23
2017-06-21T13:07:47.245Z,3.30
2017-06-21T13:10:13.991Z,3.77
2017-06-21T13:12:40.062Z,3.27
2017-06-21T13:15:06.022Z,3.13
2017-06-21T13:17:32.010Z,3.17
2017-06-21T13:19:58.072Z,3.13
2017-06-21T13:22:24.078Z,3.73
2017-06-21T13:24:50.034Z,3.73
2017-06-21T13:27:16.038Z,4.13
2017-06-21T13:29:42.011Z,3.90
2017-06-21T13:32:07.997Z,3.80
2017-06-21T13:34:33.953Z,3.30
2017-06-21T13:37:00.719Z,3.50
2017-06-21T13:39:26.680Z,3.47
2017-06-21T13:41:53.410Z,3.90
2017-06-21T13:44:20.170Z,4.40
2017-06-21T13:46:46.138Z,3.83
2017-06-21T13:49:12.121Z,2.93
2017-06-21T13:51:38.087Z,3.37
2017-06-21T13:54:04.086Z,3.10
2017-06-21T13:56:30.061Z,3.83
2017-06-21T13:58:56.021Z,3.20
2017-06-21T14:01:22.039Z,3.37
2017-06-21T14:03:48.014Z,3.27
2017-06-21T14:06:14.721Z,3.03
2017-06-21T14:08:40.726Z,2.77
2017-06-21T14:11:06.690Z,3.00
2017-06-21T14:13:32.685Z,2.30
2017-06-21T14:15:58.686Z,2.80
2017-06-21T14:18:24.713Z,3.03
2017-06-21T14:20:50.667Z,3.03
2017-06-21T14:23:16.632Z,2.93
2017-06-21T14:25:42.643Z,2.53
2017-06-21T14:28:08.665Z,2.90
2017-06-21T14:30:34.617Z,2.60
2017-06-21T14:33:01.332Z,3.20
2017-06-21T14:35:27.342Z,2.47
2017-06-21T14:37:53.293Z,3.23
2017-06-21T14:40:19.377Z,3.23
2017-06-21T14:42:45.330Z,3.23
2017-06-21T14:45:11.330Z,3.00
2017-06-21T14:47:37.354Z,3.43
2017-06-21T14:50:03.354Z,3.10
2017-06-21T14:52:29.327Z,3.20
2017-06-21T14:54:55.353Z,3.63
2017-06-21T14:57:21.314Z,2.87
2017-06-21T14:59:48.057Z,3.07
2017-06-21T15:02:14.022Z,2.90
2017-06-21T15:04:40.027Z,3.20
2017-06-21T15:07:05.986Z,2.90
2017-06-21T15:09:31.953Z,2.83
2017-06-21T15:11:57.942Z,2.67
2017-06-21T15:14:23.905Z,3.13
2017-06-21T15:16:49.910Z,2.80
2017-06-21T15:19:15.873Z,2.87
2017-06-21T15:21:41.894Z,3.10
2017-06-21T15:24:07.853Z,3.53
2017-06-21T15:26:33.817Z,2.60
2017-06-21T15:28:59.827Z,2.40
2017-06-21T15:31:26.535Z,2.50
2017-06-21T15:33:52.530Z,2.73
2017-06-21T15:36:18.482Z,2.80
2017-06-21T15:38:45.490Z,2.43
2017-06-21T15:41:11.498Z,2.23
2017-06-21T15:43:37.468Z,2.20
2017-06-21T15:46:03.483Z,2.40
2017-06-21T15:48:29.444Z,2.53
2017-06-21T15:50:56.217Z,2.30
2017-06-21T15:53:22.181Z,3.20
2017-06-21T15:55:48.879Z,2.20
2017-06-21T15:58:14.913Z,2.10
2017-06-21T16:00:40.946Z,2.13
2017-06-21T16:03:06.916Z,2.57
2017-06-21T16:05:32.885Z,2.10
2017-06-21T16:07:58.914Z,2.40
2017-06-21T16:10:24.878Z,2.23
2017-06-21T16:12:50.899Z,2.87
2017-06-21T16:15:16.850Z,2.60
2017-06-21T16:17:42.838Z,2.37
2017-06-21T16:20:08.847Z,2.27
2017-06-21T16:22:34.818Z,2.40
2017-06-21T16:25:00.790Z,2.37
2017-06-21T16:27:26.790Z,2.13
2017-06-21T16:29:52.762Z,2.23
2017-06-21T16:32:18.775Z,2.07
2017-06-21T16:34:44.729Z,2.57
2017-06-21T16:37:10.714Z,2.10
2017-06-21T16:39:36.700Z,1.97
2017-06-21T16:42:02.734Z,2.30
2017-06-21T16:44:28.702Z,2.20
2017-06-21T16:46:54.722Z,2.00
2017-06-21T16:49:20.682Z,2.13
2017-06-21T16:51:46.643Z,2.30
2017-06-21T16:54:12.625Z,1.80
2017-06-21T16:56:38.586Z,2.07
2017-06-21T16:59:04.603Z,2.10
2017-06-21T17:01:30.574Z,1.50
2017-06-21T17:03:56.619Z,2.33
2017-06-21T17:06:22.631Z,2.13
2017-06-21T17:08:48.594Z,1.70
2017-06-21T17:11:14.558Z,2.00
2017-06-21T17:13:40.553Z,1.80
2017-06-21T17:16:06.518Z,2.10
2017-06-21T17:18:32.517Z,2.00
2017-06-21T17:20:58.512Z,1.70
2017-06-21T17:23:24.494Z,2.10
2017-06-21T17:25:50.511Z,2.10
2017-06-21T17:28:16.469Z,2.40
2017-06-21T17:30:42.430Z,2.00
2017-06-21T17:33:08.427Z,2.00
2017-06-21T17:35:34.386Z,2.00
2017-06-21T17:38:00.390Z,1.90
2017-06-21T17:40:26.430Z,2.20
2017-06-21T17:42:52.458Z,2.03
2017-06-21T17:45:18.422Z,2.30
2017-06-21T17:47:44.442Z,2.10
2017-06-21T17:50:10.434Z,2.00
2017-06-21T17:52:36.409Z,2.20
2017-06-21T17:55:02.434Z,2.70
2017-06-21T17:57:28.398Z,1.50
2017-06-21T17:59:54.414Z,1.83
2017-06-21T18:02:20.409Z,2.10
2017-06-21T18:04:46.430Z,2.20
2017-06-21T18:07:12.432Z,1.83
2017-06-21T18:09:38.414Z,2.43
2017-06-21T18:12:04.421Z,2.57
2017-06-21T18:14:30.434Z,2.40
2017-06-21T18:16:56.393Z,2.27
2017-06-21T18:19:22.370Z,2.17
2017-06-21T18:21:48.330Z,2.10
2017-06-21T18:24:15.099Z,2.97
2017-06-21T18:26:41.069Z,2.40
2017-06-21T18:29:07.079Z,2.50
2017-06-21T18:31:33.089Z,1.93
2017-06-21T18:33:59.819Z,2.53
2017-06-21T18:36:25.842Z,2.17
2017-06-21T18:38:51.801Z,2.40
2017-06-21T18:41:17.753Z,2.60
2017-06-21T18:43:43.758Z,2.33
2017-06-21T18:46:09.743Z,2.83
2017-06-21T18:48:36.715Z,2.87
2017-06-21T18:51:03.079Z,2.33
2017-06-21T18:53:29.859Z,2.90
2017-06-21T18:55:56.094Z,2.30
2017-06-21T18:58:22.271Z,2.40
2017-06-21T19:00:48.306Z,3.37
2017-06-21T19:03:14.492Z,2.70
2017-06-21T19:05:40.748Z,2.67
2017-06-21T19:08:06.874Z,3.50
2017-06-21T19:10:32.863Z,4.10
2017-06-21T19:12:58.884Z,5.00
2017-06-21T19:15:25.111Z,9.20
2017-06-21T19:17:51.102Z,9.17
2017-06-21T19:20:17.080Z,8.67
2017-06-21T19:22:43.237Z,7.40
2017-06-21T19:25:09.351Z,8.20
2017-06-21T19:27:35.463Z,8.57
2017-06-21T19:30:01.489Z,6.87
2017-06-21T19:32:28.269Z,6.43
2017-06-21T19:34:54.410Z,6.67
2017-06-21T19:37:20.555Z,3.50
2017-06-21T19:39:47.343Z,4.20
2017-06-21T19:42:13.350Z,5.23
2017-06-21T19:44:39.512Z,5.40
2017-06-21T19:47:05.598Z,5.13
2017-06-21T19:49:31.570Z,3.00
2017-06-21T19:51:57.670Z,3.70
2017-06-21T19:54:23.705Z,2.63
2017-06-21T19:56:49.760Z,3.00
2017-06-21T19:59:15.787Z,3.43
2017-06-21T20:01:41.754Z,2.77
2017-06-21T20:04:07.861Z,3.43
2017-06-21T20:06:34.088Z,2.57
2017-06-21T20:09:00.391Z,2.93
2017-06-21T20:11:26.351Z,3.50
2017-06-21T20:13:52.353Z,3.63
2017-06-21T20:16:18.350Z,3.23
2017-06-21T20:18:44.319Z,3.70
2017-06-21T20:21:10.398Z,3.63
2017-06-21T20:23:36.493Z,5.23
2017-06-21T20:26:02.749Z,4.23
2017-06-21T20:28:29.138Z,3.30
2017-06-21T20:30:55.159Z,3.63
2017-06-21T20:33:21.119Z,3.47
2017-06-21T20:35:47.995Z,4.27
2017-06-21T20:38:14.006Z,4.40
2017-06-21T20:40:40.265Z,3.23
2017-06-21T20:43:07.050Z,3.20
2017-06-21T20:45:33.056Z,3.20
2017-06-21T20:47:59.023Z,3.23
2017-06-21T20:50:25.037Z,3.77
2017-06-21T20:52:51.042Z,3.90
2017-06-21T20:55:17.026Z,3.23
2017-06-21T20:57:43.027Z,3.50
2017-06-21T21:00:08.982Z,2.80
2017-06-21T21:02:35.001Z,3.80
2017-06-21T21:05:01.048Z,3.60
2017-06-21T21:07:27.057Z,3.07
2017-06-21T21:09:53.021Z,3.17
2017-06-21T21:12:18.986Z,3.50
2017-06-21T21:14:44.990Z,3.57
2017-06-21T21:17:10.970Z,3.50
2017-06-21T21:19:36.973Z,4.37
2017-06-21T21:22:03.011Z,3.43
2017-06-21T21:24:28.987Z,3.50
2017-06-21T21:26:54.958Z,2.97
2017-06-21T21:29:20.957Z,3.10
2017-06-21T21:31:46.978Z,4.00
2017-06-21T21:34:13.722Z,3.90
2017-06-21T21:36:39.734Z,3.10
2017-06-21T21:39:05.690Z,3.60
2017-06-21T21:41:31.681Z,3.13
2017-06-21T21:43:57.687Z,3.20
2017-06-21T21:46:23.699Z,3.90
2017-06-21T21:48:49.670Z,3.60
2017-06-21T21:51:15.638Z,3.50
2017-06-21T21:53:41.686Z,3.10
2017-06-21T21:56:07.659Z,3.10
2017-06-21T21:58:33.683Z,3.53
2017-06-21T22:01:00.463Z,2.97
2017-06-21T22:03:26.422Z,2.70
2017-06-21T22:05:53.161Z,2.47
2017-06-21T22:08:19.911Z,3.17
2017-06-21T22:10:45.880Z,3.60
2017-06-21T22:13:11.874Z,3.20
2017-06-21T22:15:37.842Z,3.33
2017-06-21T22:18:03.846Z,3.17
2017-06-21T22:20:29.834Z,3.60
2017-06-21T22:22:55.867Z,3.17
2017-06-21T22:25:21.825Z,3.20
2017-06-21T22:27:47.819Z,3.50
2017-06-21T22:30:13.820Z,3.27
2017-06-21T22:32:39.783Z,3.33
2017-06-21T22:35:05.787Z,3.50
2017-06-21T22:37:31.777Z,3.80
2017-06-21T22:39:58.522Z,3.60
2017-06-21T22:42:24.489Z,4.17
2017-06-21T22:44:50.558Z,3.03
2017-06-21T22:47:16.518Z,3.80
2017-06-21T22:49:42.521Z,3.60
2017-06-21T22:52:08.514Z,4.10
2017-06-21T22:54:34.482Z,3.23
2017-06-21T22:57:00.510Z,4.20
2017-06-21T22:59:26.490Z,4.60
2017-06-21T23:01:52.526Z,3.87
2017-06-21T23:04:18.487Z,4.43
2017-06-21T23:06:44.507Z,4.63
2017-06-21T23:09:11.219Z,4.53
2017-06-21T23:11:37.183Z,5.90
2017-06-21T23:14:03.229Z,5.23
2017-06-21T23:16:29.190Z,4.10
2017-06-21T23:18:55.190Z,4.10
2017-06-21T23:21:21.164Z,3.83
2017-06-21T23:23:47.153Z,3.60
2017-06-21T23:26:13.126Z,4.00
2017-06-21T23:28:39.162Z,4.47
2017-06-21T23:31:05.131Z,3.80
2017-06-21T23:33:31.126Z,3.83
2017-06-21T23:35:57.870Z,4.00
2017-06-21T23:38:23.837Z,4.03
2017-06-21T23:40:49.845Z,3.70
2017-06-21T23:43:15.811Z,3.13
2017-06-21T23:45:41.832Z,3.50
2017-06-21T23:48:07.802Z,3.70
2017-06-21T23:50:33.790Z,3.40
2017-06-21T23:52:59.873Z,3.70
2017-06-21T23:55:25.862Z,4.20
2017-06-21T23:57:51.830Z,3.70
